Detall de PIREP

Printer-friendly versionPDF version

[2013/07/08 15:58:00]
Flight IATA:CT0003
Pilot Number:012
Company ICAO:CAT
Aircraft Type:B752/E
PAX:0
Aircraft Registration:CARGO
Departing Airport: LIEA
Destination Airport: LICJ
Alternate Airport:LIRA
Online: VATSIM
Route:SODIO UM732 CAR UM871 KAPIL
Flight Level:F310
No Slew and time accel
No pause
Crash detect
Detect pilot in Cockpit between each 30 and 45 minutes
15:58 Zero fuel Weight: 181238 Lbs, Fuel Weight: 16712 Lbs
15:58 VATSIM:LIEA 081520Z 19006KT 150V210 CAVOK 28/16 Q1019
15:58 VATSIM:LICJ 081520Z 05016KT 9999 FEW030CB 27/21 Q1017
15:58 VOICE CATALONIAN
15:59 Parking Brakes off
16:03 Take-off
16:03 Take off Weight: 197201 Lbs
16:03 Wind: 174º @ 006 Knots Heading: 203º
16:03 POS N40º 37´ 52´´ E008º 17´ 25´´
16:03 Gear Up: 180 Knots
16:03 Flaps:2 at 180 Knots
16:03 Flaps:1 at 205 Knots
16:04 Flaps:0 at 206 Knots
16:16 TOC
16:16 Fuel Weight: 12201 Lb
16:18 Wind:315º@032 Knots Heading: 148º Ground Speed: 509 Knots Altitude 31158 ft
16:30 TOD
16:30 Fuel Weight: 10215 Lb
16:33 Wind:322º@009 Knots Heading: 110º Ground Speed: 420 Knots Altitude 22457 ft
16:48 Wind:036º@008 Knots Heading: 223º Ground Speed: 246 Knots Altitude 5095 ft
16:50 Flaps:1 at 199 Knots
16:52 Flaps:2 at 187 Knots
16:53 Flaps:3 at 179 Knots
16:53 Flaps:4 at 166 Knots
16:53 Flaps:5 at 169 Knots
16:53 Gear Down: 168 Knots
16:54 Flaps:6 at 160 Knots
16:56 TouchDown:Rate -172 ft/min Speed: 135 Knots
16:56 VATSIM:LICJ 081620Z 04017KT 9999 FEW020 FEW035TCU 27/21 Q1018
16:56 Land
16:56 Wind:047º@016 Knots
16:56 Heading: 067º
16:56 Flight Duration: 00:53
16:56 Landing Weight: 189501 Lbs
16:56 POS N38º 10´ 45´´ E013º 06´ 04´´
16:59 Parking brakes on
16:59 Block to Block Duration: 01:00
16:59 Final Fuel: 7998 Lbls
16:59 Spent Fuel: 8714 Lbls
16:59 Flight Length: 326 NM
16:59 TOD Land Length: 126 NM

Exportar CSV

Powered by Drupal - Modified by Danger4k